首页
METAR-TAF:

METAR-TAF

机场 :

Cooma, 澳大利亚

纬度: 36-18-00S, 经度: 148-58-24E, 海拔: 947米

当前天气观测

该预报发布于10分钟前的20:30 UTC
风速5节,风向西南
温度 9°C
湿度 87%
气压 1022 hPa
能见度10公里或以上
阴天层高于1300英尺

METAR: YCOM 072030Z AUTO 22005KT 9999 // OVC013 09/07 Q1022

时间: 06:40 (20:40 UTC)


TAF: 丢失

超过4000个机场的气象观测和天气预报(METAR&TAF报告)。

可查询的气象台以黄色和红色小点在地图上表示。

将鼠标移到小点上方,可查看气象台名称。

然后点击查看天气观测和预报。

如需切换地图:点击带黑十字的绿色按钮放大地图;点击带横线的绿色按钮缩小地图;或者点击绿色箭头查看邻近地区的地图。


METAR-TAF: